National Weather Service United States Department of Commerce

Wildire Danger Continues in Southern California

High pressure building into the Western U.S. will create strong offshore winds in southern California. Temperatures in this region are unseasonably hot, and conditions are dry. The combination of these strong winds and dry conditions will bring fire danger to portions of southern California. Red Flag Warnings are in effect here. Any new fires in this region could quickly grow out of control. Read More >

Terminal Forecast for MSP Airport



489
FTUS43 KMPX 230842 AAA
TAFMSP
TAF AMD
KMSP 230842Z 2309/2412 19009KT P6SM BKN150
FM231400 25010KT P6SM SCT120
FM231800 28013KT P6SM SCT150
FM232100 30011KT P6SM VCSH BKN070
FM240300 32009KT P6SM BKN100=

CCFP Forecasts (click for larger image)

 

 


Convective Planning Forecast